Monroe, Mississippi
Current Conditions -  °F | °C
As of 2:51 PM on Thursday 18 Dec 2014 (Local Time) from KMCB Reporting Station
Light Rain Light Rain  
Wind Chill: 50°   Ceiling: 4100
Heat Index: 50°   Visibility: 3mi
Dew Point: 48°   Wind: 8mph
Humidity: 93%   Direction: 30°NNE
Pressure: 30.13"   Gusts: NA
Location:  31.4031°N, 90.8369°W
Report Text: KMCB 182051Z AUTO 03007KT 3SM -RA BR SCT006 BKN041 OVC048 10/09 A3013 RMK AO2 SLP201 P0014 60014 T01000089 55004
Loading
Personal Weather Stations






























Interactive Weather Map New forecast layout! Learn more

10-Day Weather Forecast

Advertisements
Track Severe Weather on mobile